createdAt,value
2023-06-01T00:00:47.392Z,3.40
2023-06-01T00:03:16.257Z,3.50
2023-06-01T00:05:43.446Z,3.05
2023-06-01T00:08:31.006Z,3.63
2023-06-01T00:12:15.311Z,3.15
2023-06-01T00:15:58.669Z,3.50
2023-06-01T00:18:28.638Z,3.40
2023-06-01T00:20:56.458Z,3.47
2023-06-01T00:23:27.070Z,3.78
2023-06-01T00:27:09.616Z,3.67
2023-06-01T00:30:53.983Z,3.30
2023-06-01T00:33:22.213Z,3.25
2023-06-01T00:38:20.582Z,3.30
2023-06-01T00:40:52.104Z,3.30
2023-06-01T00:43:20.639Z,3.47
2023-06-01T00:47:04.315Z,3.55
2023-06-01T00:49:32.043Z,3.30
2023-06-01T00:53:14.993Z,3.08
2023-06-01T00:56:57.978Z,3.42
2023-06-01T00:59:30.085Z,3.42
2023-06-01T01:01:57.997Z,3.20
2023-06-01T01:05:42.917Z,4.03
2023-06-01T01:08:43.506Z,3.60
2023-06-01T01:11:29.330Z,4.75
2023-06-01T01:14:38.882Z,3.72
2023-06-01T01:17:32.185Z,3.35
2023-06-01T01:20:29.720Z,4.03
2023-06-01T01:23:21.392Z,3.85
2023-06-01T01:26:46.570Z,3.78
2023-06-01T01:29:16.878Z,4.18
2023-06-01T01:31:51.004Z,4.00
2023-06-01T01:35:34.195Z,3.97
2023-06-01T01:39:18.405Z,4.05
2023-06-01T01:43:02.414Z,3.95
2023-06-01T01:46:46.309Z,3.53
2023-06-01T01:49:28.731Z,3.97
2023-06-01T01:52:22.587Z,3.92
2023-06-01T01:56:04.985Z,4.03
2023-06-01T01:59:47.978Z,3.88
2023-06-01T02:03:30.690Z,4.05
2023-06-01T02:07:13.880Z,3.85
2023-06-01T02:10:56.592Z,3.55
2023-06-01T02:13:23.710Z,3.90
2023-06-01T02:17:06.596Z,3.78
2023-06-01T02:19:34.954Z,4.63
2023-06-01T02:22:02.648Z,4.13
2023-06-01T02:24:30.294Z,3.75
2023-06-01T02:26:57.696Z,3.92
2023-06-01T02:29:25.574Z,4.07
2023-06-01T02:31:54.024Z,3.78
2023-06-01T02:34:21.735Z,4.32
2023-06-01T02:36:49.468Z,4.10
2023-06-01T02:39:19.830Z,3.05
2023-06-01T02:41:47.694Z,4.00
2023-06-01T02:44:15.574Z,4.18
2023-06-01T02:46:43.550Z,4.07
2023-06-01T02:49:11.016Z,4.25
2023-06-01T02:51:38.143Z,4.65
2023-06-01T02:54:13.851Z,4.40
2023-06-01T02:56:41.888Z,3.80
2023-06-01T02:59:09.443Z,3.65
2023-06-01T03:01:42.947Z,4.13
2023-06-01T03:04:13.182Z,4.65
2023-06-01T03:06:41.588Z,4.20
2023-06-01T03:09:27.587Z,4.32
2023-06-01T03:12:03.058Z,4.40
2023-06-01T03:14:31.636Z,4.00
2023-06-01T03:16:58.846Z,4.10
2023-06-01T03:19:27.041Z,4.18
2023-06-01T03:21:57.671Z,3.85
2023-06-01T03:24:29.119Z,3.88
2023-06-01T03:26:59.741Z,4.53
2023-06-01T03:31:55.879Z,3.78
2023-06-01T03:34:24.701Z,4.13
2023-06-01T03:36:53.270Z,4.25
2023-06-01T03:39:46.802Z,4.20
2023-06-01T03:42:14.687Z,4.18
2023-06-01T03:44:42.791Z,4.22
2023-06-01T03:47:10.496Z,4.57
2023-06-01T03:49:38.272Z,4.43
2023-06-01T03:52:09.313Z,3.95
2023-06-01T03:54:37.001Z,4.45
2023-06-01T03:57:09.776Z,4.68
2023-06-01T03:59:37.246Z,5.30
2023-06-01T04:02:06.003Z,4.07
2023-06-01T04:04:33.947Z,4.82
2023-06-01T04:07:03.679Z,4.40
2023-06-01T04:09:31.906Z,4.38
2023-06-01T04:14:27.691Z,4.93
2023-06-01T04:16:55.240Z,4.60
2023-06-01T04:19:23.688Z,5.05
2023-06-01T04:21:58.263Z,5.35
2023-06-01T04:24:26.393Z,5.10
2023-06-01T04:26:53.897Z,4.72
2023-06-01T04:29:22.333Z,4.88
2023-06-01T04:31:50.518Z,5.28
2023-06-01T04:34:18.779Z,4.72
2023-06-01T04:36:47.450Z,5.10
2023-06-01T04:39:14.705Z,4.57
2023-06-01T04:41:41.971Z,4.70
2023-06-01T04:44:09.824Z,5.65
2023-06-01T04:46:40.231Z,4.72
2023-06-01T04:49:07.978Z,4.35
2023-06-01T04:51:37.653Z,4.90
2023-06-01T04:54:06.601Z,5.63
2023-06-01T04:56:34.972Z,5.20
2023-06-01T04:59:02.468Z,6.43
2023-06-01T05:01:31.949Z,5.68
2023-06-01T05:03:59.679Z,5.18
2023-06-01T05:06:28.214Z,6.05
2023-06-01T05:08:56.421Z,5.43
2023-06-01T05:11:24.384Z,6.20
2023-06-01T05:13:58.849Z,6.13
2023-06-01T05:16:26.554Z,5.72
2023-06-01T05:18:54.828Z,5.45
2023-06-01T05:21:26.238Z,5.95
2023-06-01T05:23:54.367Z,6.15
2023-06-01T05:26:23.246Z,5.72
2023-06-01T05:28:50.863Z,6.63
2023-06-01T05:31:18.267Z,5.85
2023-06-01T05:33:52.170Z,6.10
2023-06-01T05:36:20.099Z,6.03
2023-06-01T05:38:48.324Z,6.00
2023-06-01T05:41:15.859Z,6.35
2023-06-01T05:43:43.274Z,5.22
2023-06-01T05:46:10.581Z,5.63
2023-06-01T05:48:40.902Z,6.43
2023-06-01T05:51:08.927Z,6.28
2023-06-01T05:53:36.051Z,6.47
2023-06-01T05:56:03.731Z,6.30
2023-06-01T05:58:31.686Z,5.95
2023-06-01T06:01:00.033Z,5.68
2023-06-01T06:03:27.679Z,5.88
2023-06-01T06:05:54.950Z,6.20
2023-06-01T06:08:22.382Z,6.03
2023-06-01T06:10:49.701Z,5.95
2023-06-01T06:13:17.125Z,6.60
2023-06-01T06:15:44.661Z,6.28
2023-06-01T06:18:12.156Z,6.55
2023-06-01T06:20:39.422Z,5.53
2023-06-01T06:23:06.613Z,6.63
2023-06-01T06:25:34.461Z,6.03
2023-06-01T06:28:01.817Z,5.95
2023-06-01T06:30:29.207Z,5.10
2023-06-01T06:32:56.464Z,5.88
2023-06-01T06:35:23.734Z,6.35
2023-06-01T06:37:50.949Z,6.10
2023-06-01T06:40:19.518Z,5.13
2023-06-01T06:42:47.615Z,4.95
2023-06-01T06:45:14.856Z,5.15
2023-06-01T06:47:43.094Z,5.40
2023-06-01T06:50:11.423Z,6.40
2023-06-01T06:52:38.809Z,5.37
2023-06-01T06:55:07.490Z,5.10
2023-06-01T06:57:35.647Z,6.38
2023-06-01T07:00:05.689Z,7.03
2023-06-01T07:02:38.710Z,6.30
2023-06-01T07:05:07.117Z,4.95
2023-06-01T07:07:34.447Z,4.90
2023-06-01T07:10:01.671Z,5.13
2023-06-01T07:12:31.878Z,5.63
2023-06-01T07:14:59.147Z,5.47
2023-06-01T07:17:26.475Z,5.20
2023-06-01T07:19:53.753Z,4.75
2023-06-01T07:22:22.309Z,4.55
2023-06-01T07:24:49.458Z,4.80
2023-06-01T07:27:18.123Z,4.57
2023-06-01T07:29:45.776Z,4.05
2023-06-01T07:32:13.214Z,3.42
2023-06-01T07:34:40.580Z,4.05
2023-06-01T07:37:17.861Z,5.07
2023-06-01T07:39:46.262Z,4.65
2023-06-01T07:42:13.983Z,4.13
2023-06-01T07:44:41.803Z,4.15
2023-06-01T07:47:09.322Z,3.92
2023-06-01T07:49:37.528Z,4.20
2023-06-01T07:52:06.894Z,3.97
2023-06-01T07:54:38.521Z,3.95
2023-06-01T07:57:07.452Z,4.28
2023-06-01T07:59:36.735Z,3.67
2023-06-01T08:02:04.527Z,3.70
2023-06-01T08:04:35.291Z,3.85
2023-06-01T08:07:07.443Z,3.35
2023-06-01T08:09:38.728Z,3.53
2023-06-01T08:12:08.084Z,4.50
2023-06-01T08:14:35.461Z,4.13
2023-06-01T08:17:03.961Z,3.25
2023-06-01T08:19:32.376Z,3.60
2023-06-01T08:22:00.181Z,3.78
2023-06-01T08:24:35.525Z,5.18
2023-06-01T08:27:05.363Z,5.03
2023-06-01T08:29:41.811Z,4.20
2023-06-01T08:32:11.008Z,4.35
2023-06-01T08:34:38.236Z,3.88
2023-06-01T08:37:31.122Z,3.53
2023-06-01T08:40:01.015Z,4.43
2023-06-01T08:42:40.408Z,3.63
2023-06-01T08:45:08.737Z,3.78
2023-06-01T08:47:40.936Z,3.58
2023-06-01T08:50:12.233Z,3.30
2023-06-01T08:52:42.400Z,4.07
2023-06-01T08:55:11.666Z,4.28
2023-06-01T08:57:43.109Z,3.60
2023-06-01T09:00:16.503Z,4.22
2023-06-01T09:02:44.924Z,4.20
2023-06-01T09:05:14.089Z,4.35
2023-06-01T09:07:44.895Z,4.00
2023-06-01T09:10:12.702Z,4.30
2023-06-01T09:12:53.677Z,4.43
2023-06-01T09:15:26.720Z,4.30
2023-06-01T09:18:08.957Z,3.78
2023-06-01T09:20:38.388Z,4.28
2023-06-01T09:23:06.343Z,4.00
2023-06-01T09:25:35.313Z,5.40
2023-06-01T09:30:44.274Z,4.13
2023-06-01T09:33:19.486Z,4.15
2023-06-01T09:35:51.132Z,4.43
2023-06-01T09:38:27.643Z,4.75
2023-06-01T09:41:04.599Z,4.20
2023-06-01T09:43:39.029Z,4.28
2023-06-01T09:46:14.882Z,4.05
2023-06-01T09:48:45.045Z,3.97
2023-06-01T09:51:30.893Z,3.92
2023-06-01T09:53:58.891Z,4.10
2023-06-01T09:56:26.858Z,4.00
2023-06-01T09:59:00.895Z,4.50
2023-06-01T10:01:33.059Z,4.32
2023-06-01T10:04:06.318Z,3.58
2023-06-01T10:06:43.998Z,3.90
2023-06-01T10:09:16.845Z,4.85
2023-06-01T10:11:44.352Z,3.47
2023-06-01T10:14:11.735Z,4.43
2023-06-01T10:16:41.680Z,3.53
2023-06-01T10:19:11.838Z,6.97
2023-06-01T10:21:41.265Z,4.25
2023-06-01T10:24:10.491Z,4.72
2023-06-01T10:27:02.363Z,4.30
2023-06-01T10:29:32.164Z,4.00
2023-06-01T10:31:59.375Z,3.90
2023-06-01T10:34:47.179Z,3.72
2023-06-01T10:37:19.074Z,4.40
2023-06-01T10:39:46.912Z,3.50
2023-06-01T10:42:14.351Z,3.88
2023-06-01T10:44:41.916Z,3.85
2023-06-01T10:47:12.151Z,4.10
2023-06-01T10:49:48.698Z,3.90
2023-06-01T10:52:35.516Z,4.57
2023-06-01T10:55:15.518Z,4.07
2023-06-01T10:57:45.507Z,4.03
2023-06-01T11:00:21.700Z,4.03
2023-06-01T11:03:06.964Z,3.67
2023-06-01T11:05:37.974Z,5.07
2023-06-01T11:08:22.980Z,4.85
2023-06-01T11:10:53.242Z,4.15
2023-06-01T11:13:34.842Z,4.63
2023-06-01T11:16:10.322Z,4.25
2023-06-01T11:19:00.059Z,4.30
2023-06-01T11:21:41.442Z,4.22
2023-06-01T11:24:15.705Z,3.80
2023-06-01T11:26:50.718Z,3.90
2023-06-01T11:29:22.977Z,3.97
2023-06-01T11:31:57.109Z,3.90
2023-06-01T11:34:45.633Z,4.20
2023-06-01T11:37:41.536Z,3.88
2023-06-01T11:40:11.515Z,4.00
2023-06-01T11:42:38.707Z,4.18
2023-06-01T11:45:07.012Z,4.43
2023-06-01T11:47:34.617Z,4.28
2023-06-01T11:50:01.860Z,3.50
2023-06-01T11:52:30.540Z,4.70
2023-06-01T11:55:05.778Z,3.67
2023-06-01T11:57:33.693Z,3.38
2023-06-01T12:00:01.256Z,3.80
2023-06-01T12:02:32.104Z,4.07
2023-06-01T12:05:09.892Z,3.53
2023-06-01T12:07:53.054Z,3.60
2023-06-01T12:10:22.667Z,3.63
2023-06-01T12:12:51.549Z,3.60
2023-06-01T12:15:20.287Z,3.38
2023-06-01T12:20:44.169Z,3.28
2023-06-01T12:23:17.752Z,3.10
2023-06-01T12:25:58.632Z,3.20
2023-06-01T12:28:30.388Z,3.10
2023-06-01T12:31:16.502Z,3.10
2023-06-01T12:33:46.369Z,3.72
2023-06-01T12:36:36.596Z,3.33
2023-06-01T12:39:06.489Z,3.78
2023-06-01T12:41:34.233Z,3.28
2023-06-01T12:44:01.909Z,3.35
2023-06-01T12:46:34.348Z,3.75
2023-06-01T12:49:22.272Z,3.50
2023-06-01T12:51:49.498Z,2.78
2023-06-01T12:54:18.497Z,3.30
2023-06-01T12:56:48.556Z,3.03
2023-06-01T12:59:16.302Z,3.25
2023-06-01T13:01:44.744Z,3.10
2023-06-01T13:04:12.640Z,3.42
2023-06-01T13:09:08.927Z,3.42
2023-06-01T13:11:36.500Z,3.15
2023-06-01T13:14:03.808Z,2.92
2023-06-01T13:16:31.055Z,2.63
2023-06-01T13:19:01.522Z,3.10
2023-06-01T13:21:28.910Z,2.63
2023-06-01T13:23:56.499Z,2.70
2023-06-01T13:28:53.938Z,3.38
2023-06-01T13:31:22.098Z,3.15
2023-06-01T13:33:51.582Z,3.20
2023-06-01T13:36:18.886Z,3.33
2023-06-01T13:38:46.689Z,2.80
2023-06-01T13:41:13.931Z,3.42
2023-06-01T13:43:41.867Z,3.72
2023-06-01T13:48:38.733Z,2.80
2023-06-01T13:51:07.314Z,3.20
2023-06-01T13:53:35.264Z,3.55
2023-06-01T13:56:04.068Z,3.00
2023-06-01T13:58:35.368Z,3.03
2023-06-01T14:01:02.857Z,2.50
2023-06-01T14:03:30.606Z,2.65
2023-06-01T14:05:58.412Z,2.90
2023-06-01T14:10:53.862Z,3.30
2023-06-01T14:13:21.147Z,2.67
2023-06-01T14:15:48.883Z,2.67
2023-06-01T14:20:44.242Z,2.63
2023-06-01T14:23:15.263Z,3.33
2023-06-01T14:25:42.878Z,2.42
2023-06-01T14:28:10.245Z,2.67
2023-06-01T14:30:37.562Z,2.40
2023-06-01T14:33:04.896Z,2.70
2023-06-01T14:35:34.275Z,2.80
2023-06-01T14:38:02.158Z,2.78
2023-06-01T14:40:29.762Z,3.75
2023-06-01T14:42:57.536Z,2.85
2023-06-01T14:45:24.719Z,2.83
2023-06-01T14:47:52.353Z,2.50
2023-06-01T14:50:21.085Z,2.70
2023-06-01T14:52:48.836Z,3.40
2023-06-01T14:55:17.934Z,2.72
2023-06-01T14:57:45.840Z,2.95
2023-06-01T15:00:14.123Z,2.72
2023-06-01T15:02:41.500Z,2.80
2023-06-01T15:05:09.697Z,2.58
2023-06-01T15:07:37.516Z,3.05
2023-06-01T15:10:06.264Z,2.60
2023-06-01T15:12:34.040Z,2.40
2023-06-01T15:15:01.395Z,2.05
2023-06-01T15:17:28.751Z,2.70
2023-06-01T15:19:56.992Z,2.20
2023-06-01T15:22:24.331Z,2.38
2023-06-01T15:24:51.996Z,2.03
2023-06-01T15:27:20.647Z,2.42
2023-06-01T15:29:48.199Z,2.20
2023-06-01T15:32:15.533Z,2.33
2023-06-01T15:34:43.327Z,2.47
2023-06-01T15:37:13.082Z,2.00
2023-06-01T15:39:41.620Z,2.40
2023-06-01T15:42:11.201Z,1.83
2023-06-01T15:44:45.010Z,2.38
2023-06-01T15:47:13.026Z,2.10
2023-06-01T15:52:09.032Z,1.80
2023-06-01T15:54:37.326Z,1.70
2023-06-01T15:59:33.183Z,1.55
2023-06-01T16:02:01.854Z,1.80
2023-06-01T16:04:29.367Z,1.90
2023-06-01T16:06:57.527Z,2.20
2023-06-01T16:09:25.501Z,2.03
2023-06-01T16:14:20.055Z,2.03
2023-06-01T16:16:48.338Z,1.60
2023-06-01T16:19:16.319Z,2.17
2023-06-01T16:21:43.871Z,2.15
2023-06-01T16:24:11.540Z,1.93
2023-06-01T16:26:38.968Z,2.13
2023-06-01T16:29:06.134Z,1.80
2023-06-01T16:31:33.497Z,2.15
2023-06-01T16:34:00.943Z,1.77
2023-06-01T16:36:28.162Z,1.73
2023-06-01T16:38:55.667Z,1.90
2023-06-01T16:41:24.536Z,1.70
2023-06-01T16:43:51.834Z,1.77
2023-06-01T16:46:19.540Z,2.08
2023-06-01T16:48:47.104Z,1.80
2023-06-01T16:51:14.446Z,1.40
2023-06-01T16:53:41.889Z,1.42
2023-06-01T16:56:09.371Z,1.58
2023-06-01T16:58:36.836Z,1.98
2023-06-01T17:01:04.701Z,1.83
2023-06-01T17:03:32.479Z,1.95
2023-06-01T17:05:59.854Z,1.70
2023-06-01T17:08:27.618Z,1.92
2023-06-01T17:10:55.470Z,1.85
2023-06-01T17:13:22.788Z,1.95
2023-06-01T17:15:50.621Z,1.88
2023-06-01T17:18:18.273Z,1.50
2023-06-01T17:20:46.099Z,2.42
2023-06-01T17:23:14.692Z,1.90
2023-06-01T17:25:43.303Z,3.10
2023-06-01T17:28:10.746Z,3.40
2023-06-01T17:30:38.739Z,2.40
2023-06-01T17:33:06.269Z,2.40
2023-06-01T17:35:33.605Z,2.08
2023-06-01T17:38:01.322Z,2.10
2023-06-01T17:40:28.669Z,2.17
2023-06-01T17:42:55.978Z,2.05
2023-06-01T17:45:23.992Z,2.17
2023-06-01T17:47:51.585Z,2.42
2023-06-01T17:50:19.146Z,3.03
2023-06-01T17:52:46.490Z,2.60
2023-06-01T17:55:14.061Z,2.30
2023-06-01T17:57:41.768Z,1.88
2023-06-01T18:00:10.515Z,2.28
2023-06-01T18:02:37.655Z,1.67
2023-06-01T18:05:05.546Z,2.20
2023-06-01T18:07:33.453Z,2.50
2023-06-01T18:10:01.036Z,2.88
2023-06-01T18:12:28.645Z,2.20
2023-06-01T18:14:56.170Z,2.50
2023-06-01T18:17:23.627Z,1.88
2023-06-01T18:19:51.441Z,1.80
2023-06-01T18:22:19.150Z,1.73
2023-06-01T18:24:46.689Z,1.42
2023-06-01T18:27:14.345Z,1.88
2023-06-01T18:29:41.672Z,1.48
2023-06-01T18:32:09.059Z,1.85
2023-06-01T18:34:36.446Z,1.85
2023-06-01T18:37:03.751Z,2.63
2023-06-01T18:39:31.343Z,2.58
2023-06-01T18:41:59.297Z,2.22
2023-06-01T18:44:26.993Z,1.92
2023-06-01T18:46:54.300Z,2.35
2023-06-01T18:49:22.850Z,2.55
2023-06-01T18:51:50.743Z,2.08
2023-06-01T18:54:18.284Z,2.10
2023-06-01T18:56:48.464Z,2.17
2023-06-01T18:59:16.633Z,2.28
2023-06-01T19:01:44.313Z,2.20
2023-06-01T19:04:11.980Z,2.58
2023-06-01T19:06:39.230Z,2.72
2023-06-01T19:09:06.908Z,2.75
2023-06-01T19:11:34.234Z,2.90
2023-06-01T19:14:01.559Z,2.40
2023-06-01T19:16:32.777Z,2.45
2023-06-01T19:19:04.190Z,2.33
2023-06-01T19:21:33.354Z,2.33
2023-06-01T19:24:11.948Z,2.78
2023-06-01T19:29:12.152Z,2.00
2023-06-01T19:31:44.756Z,2.40
2023-06-01T19:34:14.206Z,2.40
2023-06-01T19:36:44.621Z,2.42
2023-06-01T19:39:39.303Z,2.80
2023-06-01T19:42:36.867Z,1.98
2023-06-01T19:45:06.039Z,2.40
2023-06-01T19:47:59.550Z,3.88
2023-06-01T19:50:44.853Z,2.58
2023-06-01T19:53:15.755Z,2.50
2023-06-01T19:55:44.275Z,2.07
2023-06-01T19:58:11.709Z,2.70
2023-06-01T20:00:39.124Z,2.20
2023-06-01T20:03:14.965Z,2.30
2023-06-01T20:05:42.180Z,2.65
2023-06-01T20:08:15.001Z,2.60
2023-06-01T20:10:42.300Z,2.40
2023-06-01T20:13:09.706Z,2.17
2023-06-01T20:15:44.561Z,2.40
2023-06-01T20:18:12.856Z,2.40
2023-06-01T20:20:46.449Z,2.88
2023-06-01T20:23:19.132Z,2.65
2023-06-01T20:25:48.844Z,2.35
2023-06-01T20:28:16.599Z,2.28
2023-06-01T20:31:05.300Z,3.20
2023-06-01T20:33:35.342Z,3.25
2023-06-01T20:36:07.873Z,3.05
2023-06-01T20:38:41.187Z,3.60
2023-06-01T20:41:23.692Z,2.75
2023-06-01T20:43:55.913Z,2.60
2023-06-01T20:46:27.124Z,2.45
2023-06-01T20:49:05.046Z,2.40
2023-06-01T20:51:37.840Z,2.90
2023-06-01T20:54:13.064Z,2.42
2023-06-01T20:56:47.892Z,2.38
2023-06-01T20:59:32.808Z,2.67
2023-06-01T21:02:06.976Z,2.28
2023-06-01T21:04:38.872Z,2.53
2023-06-01T21:07:08.532Z,3.10
2023-06-01T21:09:35.867Z,2.22
2023-06-01T21:12:03.584Z,3.42
2023-06-01T21:14:32.218Z,2.97
2023-06-01T21:17:00.026Z,3.03
2023-06-01T21:19:27.840Z,3.10
2023-06-01T21:21:55.842Z,3.33
2023-06-01T21:24:23.813Z,3.38
2023-06-01T21:26:51.334Z,3.63
2023-06-01T21:29:18.889Z,4.15
2023-06-01T21:31:46.924Z,2.78
2023-06-01T21:34:14.552Z,2.85
2023-06-01T21:36:42.078Z,2.40
2023-06-01T21:39:09.914Z,3.00
2023-06-01T21:41:37.878Z,3.05
2023-06-01T21:44:08.077Z,3.17
2023-06-01T21:46:35.708Z,3.85
2023-06-01T21:49:03.167Z,2.78
2023-06-01T21:51:30.854Z,4.43
2023-06-01T21:53:58.685Z,4.13
2023-06-01T21:56:26.520Z,4.53
2023-06-01T21:58:54.864Z,4.50
2023-06-01T22:01:24.619Z,3.63
2023-06-01T22:03:52.232Z,2.67
2023-06-01T22:06:19.914Z,3.78
2023-06-01T22:08:47.906Z,3.28
2023-06-01T22:11:15.449Z,3.25
2023-06-01T22:13:43.410Z,3.75
2023-06-01T22:16:11.055Z,3.33
2023-06-01T22:18:38.722Z,3.63
2023-06-01T22:21:07.372Z,4.40
2023-06-01T22:23:34.774Z,4.72
2023-06-01T22:26:04.346Z,3.88
2023-06-01T22:28:32.484Z,3.70
2023-06-01T22:30:59.891Z,3.65
2023-06-01T22:33:27.334Z,3.08
2023-06-01T22:35:54.664Z,3.80
2023-06-01T22:38:21.990Z,3.67
2023-06-01T22:40:49.580Z,4.25
2023-06-01T22:43:17.094Z,3.47
2023-06-01T22:45:44.879Z,3.97
2023-06-01T22:48:32.249Z,3.55
2023-06-01T22:51:01.441Z,3.30
2023-06-01T22:55:56.616Z,3.58
2023-06-01T22:58:23.963Z,3.95
2023-06-01T23:00:51.651Z,4.55
2023-06-01T23:03:19.761Z,3.10
2023-06-01T23:05:50.666Z,3.10
2023-06-01T23:08:22.134Z,3.30
2023-06-01T23:10:50.739Z,3.00
2023-06-01T23:13:26.179Z,3.13
2023-06-01T23:15:56.790Z,3.35
2023-06-01T23:18:30.044Z,3.38
2023-06-01T23:20:57.396Z,3.17
2023-06-01T23:23:26.117Z,3.40
2023-06-01T23:25:55.222Z,4.03
2023-06-01T23:28:22.900Z,3.13
2023-06-01T23:30:53.801Z,3.25
2023-06-01T23:33:21.166Z,3.95
2023-06-01T23:35:48.576Z,3.55
2023-06-01T23:38:16.490Z,3.40
2023-06-01T23:40:43.810Z,3.55
2023-06-01T23:43:11.072Z,3.40
2023-06-01T23:45:38.647Z,4.05
2023-06-01T23:48:07.100Z,3.78
2023-06-01T23:50:34.773Z,3.78
2023-06-01T23:53:02.030Z,3.55
2023-06-01T23:55:29.462Z,3.63
2023-06-01T23:57:56.749Z,3.70
